Time;durP1;ratioP1;P1;durP2;ratioP2;P2;SDS_P1;SDS_P2;PMS_P1;PMS_P2;Temp;Humidity;BMP_temperature;BMP_pressure;BME280_temperature;BME280_humidity;BME280_pressure;Samples;Min_cycle;Max_cycle;Signal;HPM_P1;HPM_P2
2023/12/05 00:01:39;;;;;;;203.70;50.35;;;;;;;;;;4991674;28;20419;-42
2023/12/05 00:04:05;;;;;;;196.07;49.27;;;;;;;;;;4991690;28;20205;-42
2023/12/05 00:06:31;;;;;;;205.07;51.03;;;;;;;;;;4991705;28;20500;-42
2023/12/05 00:08:57;;;;;;;206.37;51.13;;;;;;;;;;4991294;28;20955;-42
2023/12/05 00:11:23;;;;;;;206.67;51.63;;;;;;;;;;4991629;28;20899;-43
2023/12/05 00:13:49;;;;;;;199.48;50.60;;;;;;;;;;4991582;28;20453;-42
2023/12/05 00:16:15;;;;;;;198.73;50.40;;;;;;;;;;4991751;28;20535;-43
2023/12/05 00:18:44;;;;;;;201.52;50.80;;;;;;;;;;4991327;28;20420;-43
2023/12/05 00:21:10;;;;;;;202.73;49.95;;;;;;;;;;4991451;28;20547;-42
2023/12/05 00:23:36;;;;;;;203.02;50.47;;;;;;;;;;4997304;23;20600;-42
2023/12/05 00:26:02;;;;;;;201.30;50.00;;;;;;;;;;4975476;28;20173;-42
2023/12/05 00:28:27;;;;;;;200.03;50.53;;;;;;;;;;4975069;28;21053;-42
2023/12/05 00:30:53;;;;;;;198.27;50.67;;;;;;;;;;4975490;28;20805;-42
2023/12/05 00:33:19;;;;;;;199.07;50.93;;;;;;;;;;4975308;28;20775;-42
2023/12/05 00:35:45;;;;;;;196.83;50.43;;;;;;;;;;4984049;28;20841;-42
2023/12/05 00:38:11;;;;;;;200.90;53.70;;;;;;;;;;4984228;28;20408;-42
2023/12/05 00:40:37;;;;;;;199.70;51.83;;;;;;;;;;4983097;28;20420;-42
2023/12/05 00:43:03;;;;;;;202.20;54.10;;;;;;;;;;4979335;28;20437;-42
2023/12/05 00:45:29;;;;;;;196.27;48.80;;;;;;;;;;4972747;28;20433;-41
2023/12/05 00:47:55;;;;;;;193.87;50.97;;;;;;;;;;4982934;28;20915;-42
2023/12/05 00:50:21;;;;;;;196.73;51.23;;;;;;;;;;4985333;28;20483;-41
2023/12/05 00:52:47;;;;;;;199.57;52.13;;;;;;;;;;4985415;28;20444;-42
2023/12/05 00:55:13;;;;;;;194.55;50.25;;;;;;;;;;4984905;28;20621;-42
2023/12/05 00:57:39;;;;;;;184.77;49.28;;;;;;;;;;4982826;28;20285;-42
2023/12/05 01:00:09;;;;;;;181.07;49.50;;;;;;;;;;4985879;28;20195;-42
2023/12/05 01:02:35;;;;;;;186.43;49.22;;;;;;;;;;4990419;28;20483;-41
2023/12/05 01:05:02;;;;;;;186.15;49.83;;;;;;;;;;4983280;28;20811;-42
2023/12/05 01:07:28;;;;;;;185.75;50.38;;;;;;;;;;4982774;28;20643;-41
2023/12/05 01:09:54;;;;;;;186.20;50.75;;;;;;;;;;4988430;28;20212;-42
2023/12/05 01:12:20;;;;;;;186.52;50.38;;;;;;;;;;4984661;28;20169;-42
2023/12/05 01:14:46;;;;;;;188.80;50.17;;;;;;;;;;4980758;28;20194;-42
2023/12/05 01:17:13;;;;;;;190.70;51.90;;;;;;;;;;4982889;28;20558;-42
2023/12/05 01:19:39;;;;;;;190.88;50.38;;;;;;;;;;4982410;28;20412;-42
2023/12/05 01:22:05;;;;;;;191.60;50.38;;;;;;;;;;4985638;28;20660;-42
2023/12/05 01:24:31;;;;;;;189.88;49.90;;;;;;;;;;4984960;28;20296;-42
2023/12/05 01:26:57;;;;;;;188.67;50.90;;;;;;;;;;4986912;28;20263;-42
2023/12/05 01:29:23;;;;;;;192.57;50.17;;;;;;;;;;4982752;28;20459;-42
2023/12/05 01:31:49;;;;;;;192.77;50.88;;;;;;;;;;4978855;28;20417;-42
2023/12/05 01:34:15;;;;;;;189.55;50.28;;;;;;;;;;4985439;28;20197;-42
2023/12/05 01:36:42;;;;;;;185.23;52.20;;;;;;;;;;4983519;28;20517;-42
2023/12/05 01:39:12;;;;;;;179.20;49.72;;;;;;;;;;4989687;28;20464;-42
2023/12/05 01:41:38;;;;;;;188.55;50.28;;;;;;;;;;4982209;28;20264;-42
2023/12/05 01:44:04;;;;;;;190.83;51.77;;;;;;;;;;4984872;28;20280;-42
2023/12/05 01:46:30;;;;;;;186.68;49.67;;;;;;;;;;4981961;28;20409;-42
2023/12/05 01:48:56;;;;;;;187.45;50.65;;;;;;;;;;4982864;28;20205;-42
2023/12/05 01:51:22;;;;;;;195.05;50.97;;;;;;;;;;4985527;28;20265;-42
2023/12/05 01:53:48;;;;;;;189.32;49.78;;;;;;;;;;4981861;28;20206;-42
2023/12/05 01:56:14;;;;;;;184.65;50.30;;;;;;;;;;4983659;28;20165;-42
2023/12/05 01:58:41;;;;;;;183.43;49.28;;;;;;;;;;4981745;28;20192;-42
2023/12/05 02:01:08;;;;;;;189.82;51.20;;;;;;;;;;4980520;28;20266;-42
2023/12/05 02:03:34;;;;;;;184.50;50.17;;;;;;;;;;4980830;28;20743;-42
2023/12/05 02:06:00;;;;;;;190.00;52.22;;;;;;;;;;4987371;28;20180;-42
2023/12/05 02:08:30;;;;;;;178.52;50.63;;;;;;;;;;4983096;28;20205;-42
2023/12/05 02:10:56;;;;;;;182.75;49.97;;;;;;;;;;4979952;28;20582;-42
2023/12/05 02:13:22;;;;;;;185.90;49.95;;;;;;;;;;4980659;28;20233;-42
2023/12/05 02:15:51;;;;;;;183.90;49.83;;;;;;;;;;4982529;28;20201;-42
2023/12/05 02:18:20;;;;;;;186.73;52.67;;;;;;;;;;4985093;28;20169;-42
2023/12/05 02:20:48;;;;;;;181.95;49.60;;;;;;;;;;4983021;28;20182;-42
2023/12/05 02:23:26;;;;;;;182.77;49.35;;;;;;;;;;4984664;28;20276;-41
2023/12/05 02:26:08;;;;;;;184.70;49.28;;;;;;;;;;4984457;28;20172;-42
2023/12/05 02:28:35;;;;;;;181.80;50.13;;;;;;;;;;4981721;28;20201;-42
2023/12/05 02:31:01;;;;;;;179.18;48.63;;;;;;;;;;4981733;28;20183;-42
2023/12/05 02:33:27;;;;;;;182.60;49.17;;;;;;;;;;4985633;28;20243;-42
2023/12/05 02:36:10;;;;;;;179.40;48.83;;;;;;;;;;4981288;28;20649;-41
2023/12/05 02:38:56;;;;;;;176.20;48.17;;;;;;;;;;4978885;28;20420;-42
2023/12/05 02:41:24;;;;;;;176.63;48.70;;;;;;;;;;4975304;28;20652;-41
2023/12/05 02:44:02;;;;;;;182.30;50.13;;;;;;;;;;4982382;28;20193;-42
2023/12/05 02:46:28;;;;;;;179.77;48.53;;;;;;;;;;4977854;28;20185;-42
2023/12/05 02:48:55;;;;;;;179.25;48.78;;;;;;;;;;4963291;28;20198;-42
2023/12/05 02:51:21;;;;;;;180.40;48.85;;;;;;;;;;4959405;28;20185;-42
2023/12/05 02:53:47;;;;;;;184.97;51.37;;;;;;;;;;4970961;28;20191;-42
2023/12/05 02:56:13;;;;;;;189.90;50.00;;;;;;;;;;4953917;28;20450;-42
2023/12/05 02:58:39;;;;;;;188.67;50.03;;;;;;;;;;4970645;28;20417;-42
2023/12/05 03:01:05;;;;;;;183.18;49.20;;;;;;;;;;4959898;28;20516;-42
2023/12/05 03:03:31;;;;;;;159.27;46.80;;;;;;;;;;4962494;28;20213;-42
2023/12/05 03:05:57;;;;;;;179.77;49.37;;;;;;;;;;4973224;28;20185;-42
2023/12/05 03:08:23;;;;;;;187.05;50.28;;;;;;;;;;4971384;28;20539;-42
2023/12/05 03:10:48;;;;;;;188.30;49.90;;;;;;;;;;4953633;29;20313;-42
2023/12/05 03:13:14;;;;;;;185.55;49.97;;;;;;;;;;4969959;28;20429;-42
2023/12/05 03:15:40;;;;;;;184.67;48.50;;;;;;;;;;4960531;28;20222;-42
2023/12/05 03:18:06;;;;;;;185.57;51.07;;;;;;;;;;4961855;28;20409;-42
2023/12/05 03:20:32;;;;;;;187.37;49.67;;;;;;;;;;4968143;28;20763;-42
2023/12/05 03:22:58;;;;;;;183.90;51.97;;;;;;;;;;4953754;28;20904;-42
2023/12/05 03:25:24;;;;;;;187.43;49.77;;;;;;;;;;4973044;28;20843;-42
2023/12/05 03:27:50;;;;;;;186.97;51.07;;;;;;;;;;4956864;28;20798;-42
2023/12/05 03:30:16;;;;;;;189.57;50.60;;;;;;;;;;4964689;28;20793;-41
2023/12/05 03:32:42;;;;;;;186.90;49.93;;;;;;;;;;4964877;28;20842;-42
2023/12/05 03:35:08;;;;;;;191.40;49.83;;;;;;;;;;4957200;28;20849;-41
2023/12/05 03:37:34;;;;;;;190.82;51.80;;;;;;;;;;4973261;28;20408;-42
2023/12/05 03:40:00;;;;;;;192.37;52.50;;;;;;;;;;4972255;28;20541;-41
2023/12/05 03:42:26;;;;;;;189.07;50.38;;;;;;;;;;4957326;28;20849;-42
2023/12/05 03:44:52;;;;;;;191.40;50.47;;;;;;;;;;4964392;28;20280;-41
2023/12/05 03:47:18;;;;;;;189.50;49.37;;;;;;;;;;4965222;28;20417;-41
2023/12/05 03:49:44;;;;;;;186.32;48.38;;;;;;;;;;4956285;28;20453;-42
2023/12/05 03:52:09;;;;;;;194.47;50.70;;;;;;;;;;4972468;28;20170;-42
2023/12/05 03:54:35;;;;;;;195.47;50.00;;;;;;;;;;4953588;28;20449;-42
2023/12/05 03:57:02;;;;;;;191.93;49.17;;;;;;;;;;4968882;28;20471;-42
2023/12/05 03:59:28;;;;;;;184.05;50.75;;;;;;;;;;4965050;28;20587;-41
2023/12/05 04:01:54;;;;;;;137.85;52.42;;;;;;;;;;4963562;28;20182;-42
2023/12/05 04:04:20;;;;;;;115.93;44.10;;;;;;;;;;4973099;28;20221;-42
2023/12/05 04:06:46;;;;;;;197.03;51.10;;;;;;;;;;4957269;29;20485;-42
2023/12/05 04:09:12;;;;;;;82.45;38.72;;;;;;;;;;4974556;28;20962;-42
2023/12/05 04:11:38;;;;;;;192.23;49.97;;;;;;;;;;4961640;28;20732;-41
2023/12/05 04:14:04;;;;;;;128.40;45.00;;;;;;;;;;4966801;28;20217;-42
2023/12/05 04:16:30;;;;;;;137.70;44.93;;;;;;;;;;4969486;28;20421;-42
2023/12/05 04:18:56;;;;;;;136.57;44.60;;;;;;;;;;4958598;28;20500;-42
2023/12/05 04:21:22;;;;;;;113.90;42.80;;;;;;;;;;4976060;28;20419;-42
2023/12/05 04:23:48;;;;;;;114.47;42.70;;;;;;;;;;4957775;28;20457;-42
2023/12/05 04:26:18;;;;;;;133.73;45.03;;;;;;;;;;4970047;28;20182;-42
2023/12/05 04:28:44;;;;;;;150.55;47.35;;;;;;;;;;4965072;28;20449;-42
2023/12/05 04:31:11;;;;;;;159.90;47.60;;;;;;;;;;4962390;28;20537;-42
2023/12/05 04:33:37;;;;;;;169.23;48.35;;;;;;;;;;4973023;28;20193;-42
2023/12/05 04:36:03;;;;;;;160.77;46.63;;;;;;;;;;4956277;29;20781;-42
2023/12/05 04:38:29;;;;;;;159.40;46.83;;;;;;;;;;4982679;28;20239;-42
2023/12/05 04:40:55;;;;;;;143.15;45.10;;;;;;;;;;4979873;28;20186;-42
2023/12/05 04:43:21;;;;;;;165.57;48.57;;;;;;;;;;4965357;28;20198;-42
2023/12/05 04:45:47;;;;;;;151.07;46.63;;;;;;;;;;4961896;28;20808;-42
2023/12/05 04:48:13;;;;;;;140.70;48.67;;;;;;;;;;4973192;28;20175;-43
2023/12/05 04:50:39;;;;;;;148.40;45.97;;;;;;;;;;4956389;29;20417;-42
2023/12/05 04:53:05;;;;;;;138.10;45.30;;;;;;;;;;4973146;28;20564;-42
2023/12/05 04:55:31;;;;;;;138.03;44.27;;;;;;;;;;4961795;28;20423;-42
2023/12/05 04:57:57;;;;;;;143.50;45.33;;;;;;;;;;4965161;28;20410;-42
2023/12/05 05:00:23;;;;;;;152.80;47.10;;;;;;;;;;4969358;28;20500;-42
2023/12/05 05:02:49;;;;;;;160.00;48.80;;;;;;;;;;4956994;28;20410;-42
2023/12/05 05:05:15;;;;;;;168.30;47.97;;;;;;;;;;4975101;28;20401;-42
2023/12/05 05:07:41;;;;;;;172.03;48.53;;;;;;;;;;4957708;28;20174;-42
2023/12/05 05:10:07;;;;;;;165.87;48.60;;;;;;;;;;4967883;28;20500;-42
2023/12/05 05:12:33;;;;;;;159.13;46.60;;;;;;;;;;4966002;28;20419;-42
2023/12/05 05:14:59;;;;;;;172.50;48.57;;;;;;;;;;4963677;28;20707;-42
2023/12/05 05:17:25;;;;;;;171.13;48.00;;;;;;;;;;4980335;28;20768;-42
2023/12/05 05:19:51;;;;;;;168.37;47.67;;;;;;;;;;4983683;28;20183;-42
2023/12/05 05:22:17;;;;;;;162.23;47.95;;;;;;;;;;4989111;28;20897;-42
2023/12/05 05:24:43;;;;;;;165.35;47.30;;;;;;;;;;4982237;28;20216;-41
2023/12/05 05:27:09;;;;;;;167.73;47.83;;;;;;;;;;4985655;28;20181;-42
2023/12/05 05:29:35;;;;;;;176.13;48.42;;;;;;;;;;4983329;28;20463;-42
2023/12/05 05:32:00;;;;;;;171.57;48.08;;;;;;;;;;4977914;28;20173;-42
2023/12/05 05:34:26;;;;;;;176.50;48.30;;;;;;;;;;4992423;28;20247;-42
2023/12/05 05:36:52;;;;;;;178.05;49.30;;;;;;;;;;4982824;28;20544;-42
2023/12/05 05:39:18;;;;;;;172.27;48.53;;;;;;;;;;4984051;28;20668;-42
2023/12/05 05:41:44;;;;;;;168.13;49.00;;;;;;;;;;4982671;28;20886;-42
2023/12/05 05:44:10;;;;;;;163.80;46.70;;;;;;;;;;4983472;28;20456;-42
2023/12/05 05:46:36;;;;;;;170.77;48.80;;;;;;;;;;4982350;28;20417;-42
2023/12/05 05:49:02;;;;;;;168.57;47.80;;;;;;;;;;4982289;28;20472;-42
2023/12/05 05:51:28;;;;;;;154.90;46.67;;;;;;;;;;4985498;28;20507;-42
2023/12/05 05:53:55;;;;;;;147.27;45.43;;;;;;;;;;4980948;28;20742;-42
2023/12/05 05:56:22;;;;;;;121.95;42.35;;;;;;;;;;4981890;28;20496;-42
2023/12/05 05:58:48;;;;;;;117.82;43.13;;;;;;;;;;4982136;28;20183;-42
2023/12/05 06:01:14;;;;;;;146.77;45.63;;;;;;;;;;4981706;28;20184;-42
2023/12/05 06:03:41;;;;;;;124.60;44.17;;;;;;;;;;4982023;28;20441;-42
2023/12/05 06:06:07;;;;;;;119.30;43.10;;;;;;;;;;4976632;28;20181;-42
2023/12/05 06:08:33;;;;;;;74.35;38.53;;;;;;;;;;4984158;28;20209;-42
2023/12/05 06:10:59;;;;;;;125.45;43.05;;;;;;;;;;4985228;28;20178;-43
2023/12/05 06:13:25;;;;;;;124.70;44.23;;;;;;;;;;4979624;28;20245;-42
2023/12/05 06:15:51;;;;;;;78.20;39.58;;;;;;;;;;4982698;28;20452;-42
2023/12/05 06:18:17;;;;;;;184.70;52.80;;;;;;;;;;4984783;28;20248;-42
2023/12/05 06:20:43;;;;;;;177.52;50.22;;;;;;;;;;4981391;28;20269;-42
2023/12/05 06:23:10;;;;;;;162.98;61.00;;;;;;;;;;4984613;28;20673;-42
2023/12/05 06:25:36;;;;;;;157.38;46.80;;;;;;;;;;4983755;28;20181;-42
2023/12/05 06:28:02;;;;;;;159.45;52.28;;;;;;;;;;4976846;28;20200;-42
2023/12/05 06:30:28;;;;;;;168.00;48.97;;;;;;;;;;4984492;28;20212;-42
2023/12/05 06:32:53;;;;;;;168.57;56.37;;;;;;;;;;4981053;28;20721;-42
2023/12/05 06:35:19;;;;;;;122.32;39.08;;;;;;;;;;4982728;28;20406;-42
2023/12/05 06:37:45;;;;;;;160.30;51.90;;;;;;;;;;4981361;28;20169;-42
2023/12/05 06:40:11;;;;;;;164.07;49.20;;;;;;;;;;4982022;28;20515;-42
2023/12/05 06:42:40;;;;;;;181.10;63.22;;;;;;;;;;4980839;28;21147;-42
2023/12/05 06:45:06;;;;;;;181.73;48.78;;;;;;;;;;4973469;28;20193;-42
2023/12/05 06:47:32;;;;;;;181.20;50.70;;;;;;;;;;4984934;28;20185;-42
2023/12/05 06:50:01;;;;;;;25.63;22.90;;;;;;;;;;4979353;28;20201;-42
2023/12/05 06:52:28;;;;;;;31.60;24.25;;;;;;;;;;4980232;28;20252;-42
2023/12/05 06:54:54;;;;;;;47.25;40.20;;;;;;;;;;4981021;28;20193;-42
2023/12/05 06:57:20;;;;;;;41.00;32.97;;;;;;;;;;4980487;28;20166;-42
2023/12/05 06:59:46;;;;;;;40.13;35.87;;;;;;;;;;4980670;28;20240;-41
2023/12/05 07:02:12;;;;;;;40.90;34.93;;;;;;;;;;4984986;28;20517;-42
2023/12/05 07:04:38;;;;;;;19.30;17.40;;;;;;;;;;4983930;28;20428;-42
2023/12/05 07:07:04;;;;;;;30.92;27.88;;;;;;;;;;4977813;28;20177;-42
2023/12/05 07:09:30;;;;;;;38.53;30.83;;;;;;;;;;4978541;28;20202;-41
2023/12/05 07:11:57;;;;;;;72.30;40.50;;;;;;;;;;4982105;28;20177;-42
2023/12/05 07:14:22;;;;;;;82.20;39.33;;;;;;;;;;4983500;28;20182;-42
2023/12/05 07:16:48;;;;;;;90.50;40.93;;;;;;;;;;4972539;28;20186;-41
2023/12/05 07:19:14;;;;;;;80.93;39.63;;;;;;;;;;4984633;28;20423;-42
2023/12/05 07:21:40;;;;;;;122.30;44.00;;;;;;;;;;4982033;28;20410;-42
2023/12/05 07:24:06;;;;;;;107.07;42.27;;;;;;;;;;4985951;28;20217;-41
2023/12/05 07:26:32;;;;;;;103.70;41.92;;;;;;;;;;4971329;28;20410;-42
2023/12/05 07:28:58;;;;;;;69.10;37.77;;;;;;;;;;4953297;29;20591;-41
2023/12/05 07:31:24;;;;;;;75.70;39.30;;;;;;;;;;4971668;28;20748;-41
2023/12/05 07:33:50;;;;;;;117.10;42.33;;;;;;;;;;4964278;28;20463;-42
2023/12/05 07:36:16;;;;;;;80.87;39.80;;;;;;;;;;4986350;28;20413;-42
2023/12/05 07:38:42;;;;;;;78.13;39.40;;;;;;;;;;4971651;28;20489;-42
2023/12/05 07:41:17;;;;;;;81.77;39.80;;;;;;;;;;4957764;28;20410;-42
2023/12/05 07:43:43;;;;;;;76.72;36.15;;;;;;;;;;4976508;28;20790;-41
2023/12/05 07:46:09;;;;;;;30.70;24.13;;;;;;;;;;4959120;28;20269;-42
2023/12/05 07:48:35;;;;;;;51.37;36.13;;;;;;;;;;4969867;28;20976;-42
2023/12/05 07:51:01;;;;;;;61.35;37.60;;;;;;;;;;4966943;28;20514;-42
2023/12/05 07:53:27;;;;;;;47.20;34.17;;;;;;;;;;4962356;28;20297;-41
2023/12/05 07:55:53;;;;;;;67.73;37.90;;;;;;;;;;4974902;28;20397;-41
2023/12/05 07:58:19;;;;;;;72.47;39.20;;;;;;;;;;4956815;29;20391;-42
2023/12/05 08:00:44;;;;;;;45.57;28.87;;;;;;;;;;4973551;28;20417;-42
2023/12/05 08:03:13;;;;;;;38.70;34.07;;;;;;;;;;4963242;28;20519;-43
2023/12/05 08:05:39;;;;;;;28.15;25.02;;;;;;;;;;4980812;28;20813;-42
2023/12/05 08:08:05;;;;;;;24.30;22.00;;;;;;;;;;4983748;28;20250;-41
2023/12/05 08:10:31;;;;;;;44.38;32.97;;;;;;;;;;4990606;28;20178;-43
2023/12/05 08:12:57;;;;;;;20.87;18.83;;;;;;;;;;4984912;28;20181;-41
2023/12/05 08:15:23;;;;;;;12.55;11.23;;;;;;;;;;4986197;28;20500;-41
2023/12/05 08:17:49;;;;;;;36.40;29.35;;;;;;;;;;4981895;28;20179;-41
2023/12/05 08:20:15;;;;;;;10.70;9.60;;;;;;;;;;4983717;28;20238;-42
2023/12/05 08:22:41;;;;;;;18.15;16.35;;;;;;;;;;4991653;28;20495;-42
2023/12/05 08:25:11;;;;;;;20.00;17.77;;;;;;;;;;4986953;28;20289;-42
2023/12/05 08:27:37;;;;;;;40.90;34.10;;;;;;;;;;4985739;28;20462;-42
2023/12/05 08:30:03;;;;;;;35.53;27.38;;;;;;;;;;4987958;28;20206;-41
2023/12/05 08:32:30;;;;;;;28.45;25.20;;;;;;;;;;4985219;28;20539;-41
2023/12/05 08:34:56;;;;;;;11.68;10.45;;;;;;;;;;4980234;28;20287;-42
2023/12/05 08:37:23;;;;;;;31.33;28.43;;;;;;;;;;4986996;28;20229;-42
2023/12/05 08:39:49;;;;;;;40.03;33.92;;;;;;;;;;4984719;28;20426;-41
2023/12/05 08:42:15;;;;;;;39.70;33.50;;;;;;;;;;4986310;28;20175;-42
2023/12/05 08:44:40;;;;;;;37.88;33.95;;;;;;;;;;4983117;28;20453;-42
2023/12/05 08:47:06;;;;;;;41.53;35.30;;;;;;;;;;4980244;28;20186;-42
2023/12/05 08:49:32;;;;;;;40.50;34.87;;;;;;;;;;4983281;28;20552;-42
2023/12/05 08:51:58;;;;;;;36.23;32.80;;;;;;;;;;4984276;28;20515;-41
2023/12/05 08:54:24;;;;;;;37.70;34.40;;;;;;;;;;4987160;28;20426;-41
2023/12/05 08:56:51;;;;;;;38.83;34.93;;;;;;;;;;4983144;28;20494;-42
2023/12/05 08:59:17;;;;;;;38.58;34.47;;;;;;;;;;4984427;28;20446;-42
2023/12/05 09:01:47;;;;;;;27.07;24.57;;;;;;;;;;4983126;28;20211;-42
2023/12/05 09:04:13;;;;;;;28.77;25.05;;;;;;;;;;4983514;28;20443;-42
2023/12/05 09:06:39;;;;;;;8.70;7.90;;;;;;;;;;4983013;28;20181;-42
2023/12/05 09:09:05;;;;;;;9.70;8.90;;;;;;;;;;4989015;28;20204;-42
2023/12/05 09:11:31;;;;;;;20.33;18.93;;;;;;;;;;4986185;28;20411;-41
2023/12/05 09:13:58;;;;;;;27.73;25.23;;;;;;;;;;4981053;28;20435;-42
2023/12/05 09:16:24;;;;;;;14.30;12.90;;;;;;;;;;4981890;28;20172;-41
2023/12/05 09:18:51;;;;;;;10.65;9.07;;;;;;;;;;4982426;28;20180;-42
2023/12/05 09:21:17;;;;;;;9.02;7.88;;;;;;;;;;4982625;28;20549;-42
2023/12/05 09:23:43;;;;;;;7.82;7.03;;;;;;;;;;4982691;28;20213;-42
2023/12/05 09:26:09;;;;;;;152.60;42.33;;;;;;;;;;4987072;28;20192;-42
2023/12/05 09:28:35;;;;;;;194.27;53.50;;;;;;;;;;4984625;28;20456;-42
2023/12/05 09:31:01;;;;;;;197.30;56.05;;;;;;;;;;4979281;28;20184;-42
2023/12/05 09:33:27;;;;;;;194.32;54.22;;;;;;;;;;4979807;28;20220;-42
2023/12/05 09:35:53;;;;;;;194.07;54.63;;;;;;;;;;4984057;28;20623;-42
2023/12/05 09:38:19;;;;;;;189.57;56.50;;;;;;;;;;4976669;28;20428;-41
2023/12/05 09:40:45;;;;;;;31.43;20.47;;;;;;;;;;4982602;28;20420;-41
2023/12/05 09:43:12;;;;;;;26.75;24.80;;;;;;;;;;4980814;28;20450;-42
2023/12/05 09:45:43;;;;;;;28.75;25.73;;;;;;;;;;4985235;28;20239;-41
2023/12/05 09:48:11;;;;;;;12.88;11.68;;;;;;;;;;4970335;28;20272;-41
2023/12/05 09:50:37;;;;;;;13.00;11.90;;;;;;;;;;4985212;28;20248;-41
2023/12/05 09:53:05;;;;;;;12.55;11.55;;;;;;;;;;4982079;28;20231;-41
2023/12/05 09:55:31;;;;;;;77.47;26.00;;;;;;;;;;4982009;28;20170;-42
2023/12/05 10:00:32;;;;;;;210.30;64.20;;;;;;;;;;5063594;23;20512;-44
2023/12/05 10:03:01;;;;;;;201.10;60.47;;;;;;;;;;4968468;28;20244;-44
2023/12/05 10:05:28;;;;;;;210.00;63.00;;;;;;;;;;4956199;28;20198;-44
2023/12/05 10:07:55;;;;;;;206.38;60.78;;;;;;;;;;4973842;28;20196;-44
2023/12/05 10:10:22;;;;;;;184.50;57.03;;;;;;;;;;4955502;28;20210;-44
2023/12/05 10:12:48;;;;;;;173.25;56.70;;;;;;;;;;4968242;28;20687;-44
2023/12/05 10:15:14;;;;;;;133.95;51.72;;;;;;;;;;4963517;28;20225;-44
2023/12/05 10:17:40;;;;;;;153.82;51.88;;;;;;;;;;4960337;28;20209;-44
2023/12/05 10:20:07;;;;;;;164.25;55.58;;;;;;;;;;4972295;28;20611;-44
2023/12/05 10:22:34;;;;;;;193.05;56.63;;;;;;;;;;4973737;28;20181;-44
2023/12/05 10:24:59;;;;;;;194.73;58.38;;;;;;;;;;4955741;28;20178;-44
2023/12/05 10:27:27;;;;;;;194.70;57.37;;;;;;;;;;4967760;28;20230;-44
2023/12/05 10:29:53;;;;;;;194.95;57.80;;;;;;;;;;4962749;28;20627;-44
2023/12/05 10:32:25;;;;;;;196.10;57.10;;;;;;;;;;4959883;28;20174;-44
2023/12/05 10:34:51;;;;;;;193.82;58.25;;;;;;;;;;4970520;28;20184;-44
2023/12/05 10:37:21;;;;;;;196.68;57.20;;;;;;;;;;4954149;28;20720;-44
2023/12/05 10:39:49;;;;;;;198.93;58.53;;;;;;;;;;4971906;28;20700;-44
2023/12/05 10:42:14;;;;;;;201.27;58.20;;;;;;;;;;4961401;28;20275;-44
2023/12/05 10:44:40;;;;;;;199.87;56.73;;;;;;;;;;4962092;28;20320;-43
2023/12/05 10:47:07;;;;;;;198.73;55.90;;;;;;;;;;4960480;28;20420;-44
2023/12/05 10:49:34;;;;;;;198.95;55.75;;;;;;;;;;4969690;28;21003;-44
2023/12/05 10:52:05;;;;;;;195.07;56.65;;;;;;;;;;4953763;28;20174;-44
2023/12/05 10:54:31;;;;;;;201.45;57.05;;;;;;;;;;4972816;28;20188;-44
2023/12/05 10:56:58;;;;;;;174.55;55.15;;;;;;;;;;4968685;28;20215;-43
2023/12/05 10:59:27;;;;;;;187.60;56.10;;;;;;;;;;4960724;28;20201;-44
2023/12/05 11:01:55;;;;;;;202.13;56.35;;;;;;;;;;4961056;28;20197;-44
2023/12/05 11:04:22;;;;;;;204.25;65.30;;;;;;;;;;4961278;28;20225;-44
2023/12/05 11:06:48;;;;;;;208.98;58.35;;;;;;;;;;4969393;28;20208;-44
2023/12/05 11:09:14;;;;;;;199.50;55.97;;;;;;;;;;4968670;28;20676;-44
2023/12/05 11:11:40;;;;;;;196.57;58.50;;;;;;;;;;4972570;28;20514;-44
2023/12/05 11:14:09;;;;;;;172.20;53.50;;;;;;;;;;4972488;28;20183;-43
2023/12/05 11:16:36;;;;;;;116.32;47.80;;;;;;;;;;4959578;28;20192;-44
2023/12/05 11:19:09;;;;;;;114.35;47.47;;;;;;;;;;4961307;28;20587;-43
2023/12/05 11:21:36;;;;;;;126.38;47.47;;;;;;;;;;4967115;28;20216;-44
2023/12/05 11:24:19;;;;;;;124.65;51.83;;;;;;;;;;4954572;28;20185;-44
2023/12/05 11:26:54;;;;;;;125.18;47.30;;;;;;;;;;4968340;28;20858;-44
2023/12/05 11:29:26;;;;;;;191.40;56.00;;;;;;;;;;4952953;28;20216;-44
2023/12/05 11:31:56;;;;;;;201.07;57.72;;;;;;;;;;4970726;28;20192;-44
2023/12/05 11:34:22;;;;;;;200.93;55.33;;;;;;;;;;4958821;28;20227;-44
2023/12/05 11:37:07;;;;;;;201.93;54.50;;;;;;;;;;4963001;28;20181;-44
2023/12/05 11:39:33;;;;;;;203.85;54.60;;;;;;;;;;4963727;28;20994;-44
2023/12/05 11:42:09;;;;;;;202.02;54.80;;;;;;;;;;4957361;28;20180;-44
2023/12/05 11:44:38;;;;;;;200.75;54.72;;;;;;;;;;4970755;28;20205;-44
2023/12/05 11:47:09;;;;;;;204.90;56.15;;;;;;;;;;4953352;28;20166;-44
2023/12/05 11:49:39;;;;;;;205.15;55.47;;;;;;;;;;4970627;28;20229;-44
2023/12/05 11:52:09;;;;;;;206.48;56.42;;;;;;;;;;4957786;28;20173;-44
2023/12/05 11:54:35;;;;;;;205.35;55.25;;;;;;;;;;4964209;28;20263;-44
2023/12/05 11:57:14;;;;;;;205.95;56.30;;;;;;;;;;4972011;28;20180;-44
2023/12/05 11:59:41;;;;;;;201.60;55.92;;;;;;;;;;4966721;28;20290;-44
2023/12/05 12:02:08;;;;;;;205.00;56.80;;;;;;;;;;4953492;28;20189;-44
2023/12/05 12:04:33;;;;;;;201.48;53.40;;;;;;;;;;4953347;28;20258;-44
2023/12/05 12:07:00;;;;;;;203.27;55.57;;;;;;;;;;4969327;28;20225;-44
2023/12/05 12:09:26;;;;;;;203.70;55.28;;;;;;;;;;4959295;28;20476;-44
2023/12/05 12:11:52;;;;;;;202.70;56.05;;;;;;;;;;4961188;28;20227;-44
2023/12/05 12:14:19;;;;;;;201.73;55.42;;;;;;;;;;4967567;28;20174;-43
2023/12/05 12:16:50;;;;;;;203.40;56.17;;;;;;;;;;4953402;28;20177;-44
2023/12/05 12:19:16;;;;;;;202.55;54.65;;;;;;;;;;4955217;28;20280;-44
2023/12/05 12:21:42;;;;;;;208.45;56.58;;;;;;;;;;4972977;28;20319;-43
2023/12/05 12:24:09;;;;;;;203.35;55.15;;;;;;;;;;4962691;28;20182;-44
2023/12/05 12:26:35;;;;;;;200.32;54.25;;;;;;;;;;4965194;28;20200;-44
2023/12/05 12:29:07;;;;;;;207.20;56.83;;;;;;;;;;4969903;28;20209;-44
2023/12/05 12:31:33;;;;;;;203.05;55.13;;;;;;;;;;4958011;28;20200;-43
2023/12/05 12:33:59;;;;;;;205.70;56.20;;;;;;;;;;4975478;28;20542;-44
2023/12/05 12:36:25;;;;;;;205.87;55.30;;;;;;;;;;4958207;28;20418;-44
2023/12/05 12:38:52;;;;;;;207.98;56.53;;;;;;;;;;4968856;28;20803;-44
2023/12/05 12:41:18;;;;;;;207.65;55.17;;;;;;;;;;4965964;28;20642;-44
2023/12/05 12:43:43;;;;;;;209.82;56.97;;;;;;;;;;4961361;28;20718;-43
2023/12/05 12:46:09;;;;;;;211.37;57.80;;;;;;;;;;4973962;28;20253;-44
2023/12/05 12:48:36;;;;;;;209.20;56.73;;;;;;;;;;4955827;28;20921;-44
2023/12/05 12:51:02;;;;;;;209.75;56.20;;;;;;;;;;4972760;28;20408;-44
2023/12/05 12:53:30;;;;;;;208.27;56.15;;;;;;;;;;4962114;28;20178;-44
2023/12/05 12:55:56;;;;;;;204.60;54.08;;;;;;;;;;4966465;28;20177;-44
2023/12/05 12:58:32;;;;;;;209.23;58.30;;;;;;;;;;4969562;28;20182;-44
2023/12/05 13:00:58;;;;;;;208.15;54.70;;;;;;;;;;4958088;28;20406;-43
2023/12/05 13:03:24;;;;;;;205.70;53.22;;;;;;;;;;4975081;28;20203;-44
2023/12/05 13:05:52;;;;;;;44.90;22.13;;;;;;;;;;4956689;28;20175;-44
2023/12/05 13:08:18;;;;;;;40.40;37.33;;;;;;;;;;4969367;28;20186;-44
2023/12/05 13:10:44;;;;;;;34.37;31.97;;;;;;;;;;4964557;28;20190;-44
2023/12/05 13:13:10;;;;;;;41.80;37.95;;;;;;;;;;4961675;28;20470;-44
2023/12/05 13:15:37;;;;;;;29.55;27.48;;;;;;;;;;4972165;28;20217;-44
2023/12/05 13:18:03;;;;;;;17.05;15.25;;;;;;;;;;4956558;28;20162;-44
2023/12/05 13:20:30;;;;;;;10.43;9.45;;;;;;;;;;4972637;28;20509;-44
2023/12/05 13:22:57;;;;;;;11.68;10.77;;;;;;;;;;4974011;28;20181;-44
2023/12/05 13:25:23;;;;;;;11.68;10.82;;;;;;;;;;4964565;28;20174;-44
2023/12/05 13:27:50;;;;;;;9.65;8.85;;;;;;;;;;4961964;28;20183;-44
2023/12/05 13:30:17;;;;;;;13.23;12.02;;;;;;;;;;4970082;28;20670;-44
2023/12/05 13:32:43;;;;;;;21.23;19.83;;;;;;;;;;4955302;28;20529;-44
2023/12/05 13:35:09;;;;;;;20.63;19.33;;;;;;;;;;4973044;28;20177;-43
2023/12/05 13:37:36;;;;;;;9.43;8.73;;;;;;;;;;4960513;28;20177;-43
2023/12/05 13:40:04;;;;;;;20.85;18.88;;;;;;;;;;4964650;28;20208;-43
2023/12/05 13:42:30;;;;;;;25.92;24.38;;;;;;;;;;4968090;28;20176;-43
2023/12/05 13:44:56;;;;;;;11.80;11.00;;;;;;;;;;4957110;28;20247;-44
2023/12/05 13:47:22;;;;;;;15.47;14.17;;;;;;;;;;4974373;28;20502;-44
2023/12/05 13:49:48;;;;;;;16.35;15.38;;;;;;;;;;4957436;28;20501;-44
2023/12/05 13:52:14;;;;;;;62.20;34.67;;;;;;;;;;4971534;28;20238;-44
2023/12/05 13:54:41;;;;;;;77.00;37.08;;;;;;;;;;4973472;28;20470;-44
2023/12/05 13:57:07;;;;;;;40.90;36.85;;;;;;;;;;4973488;28;20188;-45
2023/12/05 13:59:34;;;;;;;39.90;36.23;;;;;;;;;;4971585;28;20189;-44
2023/12/05 14:02:00;;;;;;;59.35;30.92;;;;;;;;;;4954669;28;20432;-44
2023/12/05 14:04:26;;;;;;;27.87;24.87;;;;;;;;;;4971813;28;20189;-44
2023/12/05 14:06:53;;;;;;;45.20;37.85;;;;;;;;;;4960204;28;20427;-44
2023/12/05 14:09:19;;;;;;;45.42;36.60;;;;;;;;;;4963476;28;20263;-43